createdAt,value
2018-03-25T00:02:38.304Z,48.67
2018-03-25T00:07:40.974Z,46.67
2018-03-25T00:12:43.511Z,58.63
2018-03-25T00:17:46.132Z,73.70
2018-03-25T00:22:48.685Z,61.67
2018-03-25T00:27:51.228Z,52.10
2018-03-25T00:32:53.713Z,52.47
2018-03-25T00:37:56.182Z,50.43
2018-03-25T00:42:58.704Z,64.53
2018-03-25T00:48:01.569Z,55.53
2018-03-25T00:53:04.081Z,59.90
2018-03-25T00:58:06.543Z,43.63
2018-03-25T01:03:09.103Z,65.67
2018-03-25T01:08:11.608Z,45.53
2018-03-25T01:13:14.160Z,55.17
2018-03-25T01:18:16.725Z,62.50
2018-03-25T01:23:19.402Z,52.03
2018-03-25T01:28:21.886Z,63.10
2018-03-25T01:33:24.354Z,55.03
2018-03-25T01:38:26.856Z,62.93
2018-03-25T01:43:29.371Z,48.30
2018-03-25T01:48:31.868Z,48.37
2018-03-25T01:53:34.318Z,66.83
2018-03-25T01:58:36.777Z,46.80
2018-03-25T02:03:39.452Z,45.13
2018-03-25T02:08:42.166Z,65.40
2018-03-25T02:13:44.683Z,49.87
2018-03-25T02:18:47.184Z,65.97
2018-03-25T02:23:49.668Z,59.80
2018-03-25T02:28:52.240Z,59.73
2018-03-25T02:33:54.702Z,52.27
2018-03-25T02:38:57.177Z,57.77
2018-03-25T02:43:59.642Z,66.40
2018-03-25T02:49:02.110Z,47.87
2018-03-25T02:54:04.603Z,50.10
2018-03-25T02:59:07.128Z,69.90
2018-03-25T03:04:09.682Z,71.23
2018-03-25T03:09:12.222Z,70.53
2018-03-25T03:14:14.766Z,72.93
2018-03-25T03:19:17.284Z,60.53
2018-03-25T03:24:19.761Z,68.73
2018-03-25T03:29:22.221Z,70.63
2018-03-25T03:34:24.703Z,64.30
2018-03-25T03:39:27.210Z,62.20
2018-03-25T03:44:29.692Z,58.70
2018-03-25T03:49:32.704Z,75.50
2018-03-25T03:54:35.200Z,63.27
2018-03-25T03:59:37.780Z,71.40
2018-03-25T04:04:40.394Z,57.70
2018-03-25T04:09:42.918Z,76.23
2018-03-25T04:14:45.433Z,46.13
2018-03-25T04:19:48.151Z,50.47
2018-03-25T04:24:50.626Z,57.90
2018-03-25T04:29:53.147Z,69.47
2018-03-25T04:34:55.965Z,55.83
2018-03-25T04:39:58.461Z,59.07
2018-03-25T04:45:00.920Z,48.00
2018-03-25T04:50:03.377Z,51.40
2018-03-25T04:55:05.838Z,51.73
2018-03-25T05:00:08.362Z,48.97
2018-03-25T05:05:10.885Z,45.40
2018-03-25T05:10:13.548Z,48.83
2018-03-25T05:15:16.034Z,56.57
2018-03-25T05:20:18.545Z,64.23
2018-03-25T05:25:21.065Z,59.33
2018-03-25T05:30:23.655Z,51.30
2018-03-25T05:35:26.111Z,57.10
2018-03-25T05:40:28.590Z,53.77
2018-03-25T05:45:31.084Z,53.50
2018-03-25T05:50:33.565Z,43.73
2018-03-25T05:55:36.766Z,36.07
2018-03-25T06:00:39.282Z,46.70
2018-03-25T06:05:41.803Z,43.00
2018-03-25T06:10:44.316Z,46.00
2018-03-25T06:15:46.901Z,40.67
2018-03-25T06:20:49.382Z,32.67
2018-03-25T06:25:51.847Z,44.13
2018-03-25T06:30:54.346Z,35.93
2018-03-25T06:35:56.816Z,37.87
2018-03-25T06:40:59.309Z,36.87
2018-03-25T06:46:01.784Z,42.87
2018-03-25T06:51:04.278Z,43.70
2018-03-25T06:56:06.798Z,42.80
2018-03-25T07:01:09.343Z,42.30
2018-03-25T07:06:11.966Z,42.83
2018-03-25T07:11:15.577Z,40.33
2018-03-25T07:16:18.056Z,37.70
2018-03-25T07:21:20.532Z,41.00
2018-03-25T07:26:23.024Z,36.87
2018-03-25T07:31:25.517Z,36.17
2018-03-25T07:36:28.029Z,37.73
2018-03-25T07:41:30.535Z,32.13
2018-03-25T07:46:33.043Z,33.20
2018-03-25T07:51:35.517Z,27.83
2018-03-25T07:56:38.161Z,32.47
2018-03-25T08:01:40.794Z,32.60
2018-03-25T08:06:43.321Z,33.40
2018-03-25T08:11:48.010Z,33.40
2018-03-25T08:16:50.525Z,32.00
2018-03-25T08:21:53.131Z,31.40
2018-03-25T08:26:55.618Z,33.43
2018-03-25T08:31:58.110Z,31.40
2018-03-25T08:37:00.561Z,34.20
2018-03-25T08:42:03.075Z,30.90
2018-03-25T08:47:05.600Z,32.87
2018-03-25T08:52:08.084Z,31.30
2018-03-25T08:57:10.613Z,33.30
2018-03-25T09:02:13.150Z,33.73
2018-03-25T09:07:15.869Z,33.00
2018-03-25T09:12:18.435Z,31.00
2018-03-25T09:17:20.914Z,31.07
2018-03-25T09:22:23.423Z,33.93
2018-03-25T09:27:26.854Z,27.13
2018-03-25T09:32:29.341Z,30.53
2018-03-25T09:37:31.873Z,30.17
2018-03-25T09:42:34.367Z,31.43
2018-03-25T09:47:36.889Z,27.93
2018-03-25T09:52:39.516Z,26.80
2018-03-25T09:57:42.030Z,25.77
2018-03-25T10:02:50.558Z,25.73
2018-03-25T10:07:53.168Z,27.03
2018-03-25T10:12:56.844Z,25.70
2018-03-25T10:17:59.365Z,27.30
2018-03-25T10:23:01.840Z,27.00
2018-03-25T10:28:04.327Z,28.00
2018-03-25T10:33:07.133Z,29.20
2018-03-25T10:38:09.771Z,29.30
2018-03-25T10:43:12.323Z,27.43
2018-03-25T10:48:14.984Z,26.00
2018-03-25T10:53:17.576Z,28.20
2018-03-25T10:58:20.105Z,28.57
2018-03-25T11:03:22.598Z,30.80
2018-03-25T11:08:25.088Z,30.33
2018-03-25T11:13:27.565Z,28.30
2018-03-25T11:18:30.059Z,30.67
2018-03-25T11:23:32.569Z,30.37
2018-03-25T11:28:35.047Z,32.00
2018-03-25T11:33:37.660Z,29.83
2018-03-25T11:38:40.237Z,33.70
2018-03-25T11:43:42.843Z,28.13
2018-03-25T11:48:45.466Z,28.87
2018-03-25T11:53:47.950Z,34.80
2018-03-25T11:58:50.466Z,31.30
2018-03-25T12:03:53.023Z,31.40
2018-03-25T12:08:55.498Z,32.60
2018-03-25T12:13:58.163Z,32.50
2018-03-25T12:19:01.592Z,31.27
2018-03-25T12:24:04.068Z,29.43
2018-03-25T12:29:06.596Z,31.73
2018-03-25T12:34:09.117Z,31.07
2018-03-25T12:39:11.692Z,34.43
2018-03-25T12:44:14.190Z,31.30
2018-03-25T12:49:16.688Z,32.43
2018-03-25T12:54:19.200Z,34.80
2018-03-25T12:59:22.110Z,32.67
2018-03-25T13:04:25.606Z,32.43
2018-03-25T13:09:28.104Z,31.77
2018-03-25T13:14:30.627Z,35.53
2018-03-25T13:19:33.184Z,31.83
2018-03-25T13:24:35.694Z,34.03
2018-03-25T13:29:39.417Z,31.20
2018-03-25T13:34:41.986Z,35.23
2018-03-25T13:39:44.480Z,33.60
2018-03-25T13:44:46.981Z,33.53
2018-03-25T13:49:49.494Z,29.30
2018-03-25T13:54:51.994Z,34.70
2018-03-25T13:59:54.475Z,31.17
2018-03-25T14:04:56.986Z,32.50
2018-03-25T14:10:00.271Z,29.73
2018-03-25T14:15:02.802Z,32.13
2018-03-25T14:20:05.319Z,29.83
2018-03-25T14:25:07.896Z,32.97
2018-03-25T14:30:10.486Z,33.87
2018-03-25T14:35:13.145Z,33.23
2018-03-25T14:40:15.659Z,32.73
2018-03-25T14:45:18.215Z,32.47
2018-03-25T14:50:20.741Z,29.10
2018-03-25T14:55:23.236Z,27.97
2018-03-25T15:00:25.715Z,32.10
2018-03-25T15:05:28.197Z,32.13
2018-03-25T15:10:30.710Z,32.27
2018-03-25T15:15:33.286Z,28.50
2018-03-25T15:20:35.763Z,30.80
2018-03-25T15:25:38.279Z,30.83
2018-03-25T15:30:40.877Z,31.20
2018-03-25T15:35:43.433Z,31.03
2018-03-25T15:40:45.950Z,29.97
2018-03-25T15:45:48.441Z,30.37
2018-03-25T15:50:50.943Z,30.87
2018-03-25T15:55:53.431Z,30.27
2018-03-25T16:00:56.500Z,32.97
2018-03-25T16:05:58.965Z,28.67
2018-03-25T16:11:01.470Z,30.23
2018-03-25T16:16:03.998Z,31.23
2018-03-25T16:21:06.567Z,31.90
2018-03-25T16:26:09.075Z,29.50
2018-03-25T16:31:11.647Z,29.10
2018-03-25T16:36:14.157Z,27.60
2018-03-25T16:41:16.720Z,28.87
2018-03-25T16:46:19.275Z,32.27
2018-03-25T16:51:21.778Z,32.10
2018-03-25T16:56:24.311Z,30.17
2018-03-25T17:01:26.824Z,28.50
2018-03-25T17:06:29.290Z,22.97
2018-03-25T17:11:31.745Z,29.17
2018-03-25T17:16:34.204Z,29.80
2018-03-25T17:21:36.724Z,24.53
2018-03-25T17:26:39.244Z,24.63
2018-03-25T17:31:41.781Z,34.17
2018-03-25T17:36:44.323Z,36.13
2018-03-25T17:41:46.785Z,35.93
2018-03-25T17:46:49.265Z,31.87
2018-03-25T17:51:52.337Z,33.07
2018-03-25T17:56:54.836Z,35.97
2018-03-25T18:01:57.364Z,31.60
2018-03-25T18:06:59.809Z,32.53
2018-03-25T18:12:02.295Z,29.00
2018-03-25T18:17:05.602Z,27.80
2018-03-25T18:22:08.195Z,29.27
2018-03-25T18:27:10.702Z,31.77
2018-03-25T18:32:13.204Z,23.70
2018-03-25T18:37:15.905Z,26.27
2018-03-25T18:42:18.377Z,33.40
2018-03-25T18:47:20.882Z,27.73
2018-03-25T18:52:23.582Z,30.40
2018-03-25T18:57:26.089Z,29.97
2018-03-25T19:02:28.621Z,28.57
2018-03-25T19:07:31.150Z,29.47
2018-03-25T19:12:33.724Z,28.73
2018-03-25T19:17:36.419Z,31.80
2018-03-25T19:22:40.002Z,28.30
2018-03-25T19:27:43.475Z,29.50
2018-03-25T19:32:46.124Z,29.13
2018-03-25T19:37:48.801Z,29.90
2018-03-25T19:42:52.756Z,32.60
2018-03-25T19:47:55.295Z,28.47
2018-03-25T19:52:57.773Z,26.00
2018-03-25T19:58:02.249Z,29.80
2018-03-25T20:03:04.721Z,30.03
2018-03-25T20:08:07.211Z,36.33
2018-03-25T20:13:09.680Z,30.23
2018-03-25T20:18:12.194Z,44.70
2018-03-25T20:23:14.668Z,46.50
2018-03-25T20:28:17.208Z,45.93
2018-03-25T20:33:19.687Z,48.23
2018-03-25T20:38:24.625Z,41.97
2018-03-25T20:43:27.213Z,47.03
2018-03-25T20:48:29.706Z,45.37
2018-03-25T20:53:34.516Z,44.17
2018-03-25T20:58:39.464Z,47.77
2018-03-25T21:03:42.082Z,45.50
2018-03-25T21:08:44.589Z,45.83
2018-03-25T21:13:47.270Z,44.33
2018-03-25T21:18:49.775Z,43.57
2018-03-25T21:23:52.262Z,43.17
2018-03-25T21:28:55.864Z,38.77
2018-03-25T21:34:00.764Z,45.53
2018-03-25T21:39:04.366Z,43.03
2018-03-25T21:44:11.128Z,42.83
2018-03-25T21:49:15.933Z,41.57
2018-03-25T21:54:20.301Z,43.87
2018-03-25T21:59:26.296Z,46.37
2018-03-25T22:04:31.570Z,41.57
2018-03-25T22:09:34.405Z,37.07
2018-03-25T22:14:36.917Z,41.60
2018-03-25T22:19:39.484Z,36.47
2018-03-25T22:24:41.987Z,40.23
2018-03-25T22:29:44.476Z,38.57
2018-03-25T22:34:47.011Z,38.63
2018-03-25T22:39:49.527Z,37.67
2018-03-25T22:44:52.001Z,34.40
2018-03-25T22:49:54.457Z,40.80
2018-03-25T22:54:56.933Z,35.53
2018-03-25T22:59:59.427Z,38.80
2018-03-25T23:05:01.908Z,41.73
2018-03-25T23:10:04.408Z,33.13
2018-03-25T23:15:06.893Z,39.73
2018-03-25T23:20:09.397Z,37.93
2018-03-25T23:25:11.885Z,38.70
2018-03-25T23:30:14.406Z,37.17
2018-03-25T23:35:17.017Z,40.83
2018-03-25T23:40:19.474Z,38.83
2018-03-25T23:45:21.926Z,34.73
2018-03-25T23:50:24.396Z,40.37
2018-03-25T23:55:26.876Z,42.40
